TimeHST,TemperatureF,Dew PointF,Humidity,Sea Level PressureIn,VisibilityMPH,Wind Direction,Wind SpeedMPH,Gust SpeedMPH,PrecipitationIn,Events,Conditions,WindDirDegrees,DateUTC
12:53 AM,69.1,66.9,93,29.95,10.0,NNW,3.5,-,N/A,,Partly Cloudy,340,2012-01-27 10:53:00
1:53 AM,68.0,66.9,96,29.94,10.0,Calm,Calm,-,N/A,,Partly Cloudy,0,2012-01-27 11:53:00
2:53 AM,68.0,66.9,96,29.93,10.0,Calm,Calm,-,N/A,,Partly Cloudy,0,2012-01-27 12:53:00
3:53 AM,68.0,68.0,100,29.93,10.0,Calm,Calm,-,N/A,,Scattered Clouds,0,2012-01-27 13:53:00
4:53 AM,69.1,68.0,96,29.93,10.0,WNW,4.6,-,N/A,,Mostly Cloudy,300,2012-01-27 14:53:00
5:53 AM,68.0,66.9,96,29.94,10.0,North,3.5,-,N/A,,Scattered Clouds,360,2012-01-27 15:53:00
6:53 AM,69.1,68.0,96,29.96,10.0,Calm,Calm,-,N/A,,Scattered Clouds,0,2012-01-27 16:53:00
7:53 AM,69.1,68.0,96,29.99,10.0,NNW,3.5,-,N/A,,Scattered Clouds,330,2012-01-27 17:53:00
8:53 AM,75.0,69.1,82,30.01,10.0,Calm,Calm,-,N/A,,Scattered Clouds,0,2012-01-27 18:53:00
9:53 AM,75.9,66.0,71,30.03,10.0,South,3.5,-,N/A,,Scattered Clouds,190,2012-01-27 19:53:00
10:53 AM,75.9,69.1,79,30.02,10.0,South,10.4,-,N/A,,Scattered Clouds,170,2012-01-27 20:53:00
11:53 AM,77.0,68.0,74,30.00,10.0,South,6.9,-,N/A,,Scattered Clouds,190,2012-01-27 21:53:00
12:53 PM,77.0,68.0,74,29.98,10.0,SSE,8.1,-,N/A,,Scattered Clouds,150,2012-01-27 22:53:00
1:53 PM,79.0,68.0,69,29.96,10.0,South,10.4,-,N/A,,Clear,170,2012-01-27 23:53:00
2:53 PM,77.0,68.0,74,29.96,10.0,South,5.8,-,N/A,,Mostly Cloudy,190,2012-01-28 00:53:00
3:53 PM,79.0,68.0,69,29.96,10.0,SW,6.9,-,N/A,,Scattered Clouds,220,2012-01-28 01:53:00
4:53 PM,77.0,69.1,76,29.99,10.0,South,4.6,-,0.00,Rain,Light Rain,180,2012-01-28 02:53:00
5:53 PM,75.9,68.0,76,30.01,10.0,South,3.5,-,0.00,,Scattered Clouds,180,2012-01-28 03:53:00
6:53 PM,75.9,68.0,76,30.03,10.0,Calm,Calm,-,N/A,,Scattered Clouds,0,2012-01-28 04:53:00
7:53 PM,75.0,66.9,76,30.04,10.0,NNW,3.5,-,N/A,,Mostly Cloudy,340,2012-01-28 05:53:00
8:53 PM,73.9,68.0,82,30.06,10.0,Calm,Calm,-,N/A,,Scattered Clouds,0,2012-01-28 06:53:00
9:53 PM,73.0,68.0,84,30.07,10.0,NW,4.6,-,N/A,,Partly Cloudy,310,2012-01-28 07:53:00
10:53 PM,72.0,66.9,84,30.07,10.0,Calm,Calm,-,N/A,,Partly Cloudy,0,2012-01-28 08:53:00
11:53 PM,72.0,66.9,84,30.06,10.0,NNW,4.6,-,N/A,,Partly Cloudy,340,2012-01-28 09:53:00